Pagrindinis puslapis
METAR-TAF:

METAR-TAF

Oro uostai :

Kryvyj Rihas, Ukraina

platuma: 48-03N, ilguma: 033-13-12E, Aukštis: 124 m

Dabartinis oras

Ataskaita buvo paskelbta 42 minutes, ne 22:00 UTC
Vėjas 4 kt iš Pietvakarių
Temperatūra -2°C
Drėgmė 46%
Slėgis 1017 hPa
Matomumas 10 km arba daugiau
nėra debesų žemiau 1500 m ir nėra kamuolinių lietaus debesų

METAR: UKDR 012200Z 22002MPS CAVOK M02/M12 Q1017 R36/09//70 NOSIG

Laikas: 01:42 (22:42 UTC)

Prognozė

Ataskaita buvo paskelbta 5 valandos ir 41 minutes, ne 17:01 UTC
Prognozė galioja nuo 01 metu 18 UTC su 02 metu 18 UTC
Vėjas 8 kt iš Vakarų
Matomumas 10 km arba daugiau
Išsisklaidę debesys ne aukštis 2000 ft

TAF: UKDR 011701Z 0118/0218 27004MPS 9999 SCT020 TX10/0212Z TNM02/0203Z

Orai ataskaitas ir orų prognozės (METAR, TAF).

turimą stotys yra geltonos ir raudonos taškus žemėlapyje.

Perkelti pele per norėdami pamatyti stoties vardą.

Tada spustelėkite, norėdami matyti oro stebėjimo ir prognozės.

Norėdami pakeisti žemėlapį: spustelėkite ant žalios mygtukų su juodo kryžiaus žemyn,; žalią mygtuką su brūkšneliu, jei norite nutolinti; arba žalių rodyklių gretimoms žemėlapius.


METAR-TAF: